Time;durP1;ratioP1;P1;durP2;ratioP2;P2;SDS_P1;SDS_P2;PMS_P1;PMS_P2;Temp;Humidity;BMP_temperature;BMP_pressure;BME280_temperature;BME280_humidity;BME280_pressure;Samples;Min_cycle;Max_cycle;Signal;HPM_P1;HPM_P2
2022/09/15 00:00:25;;;;;;;2.30;2.10;;;23.00;75.60;;;;;;6112785;28;80378;-59
2022/09/15 00:03:25;;;;;;;2.58;2.13;;;23.00;75.50;;;;;;6129828;28;81223;-59
2022/09/15 00:06:26;;;;;;;5.25;2.40;;;23.00;75.60;;;;;;6124893;28;81855;-59
2022/09/15 00:09:26;;;;;;;3.85;2.60;;;23.00;75.70;;;;;;6127591;28;80551;-59
2022/09/15 00:12:27;;;;;;;3.85;2.53;;;23.00;75.70;;;;;;6125487;28;85149;-59
2022/09/15 00:15:27;;;;;;;3.25;2.15;;;23.00;75.70;;;;;;6121415;28;80260;-60
2022/09/15 00:18:28;;;;;;;3.70;2.40;;;23.00;75.80;;;;;;6115720;28;80317;-60
2022/09/15 00:21:29;;;;;;;3.53;2.70;;;23.00;75.80;;;;;;6125121;28;80513;-59
2022/09/15 00:24:29;;;;;;;4.45;2.45;;;22.90;75.70;;;;;;6123155;28;80506;-60
2022/09/15 00:27:30;;;;;;;5.07;2.60;;;23.00;75.70;;;;;;6123635;28;82770;-59
2022/09/15 00:30:30;;;;;;;3.05;2.25;;;23.00;75.80;;;;;;6105511;28;81068;-59
2022/09/15 00:33:31;;;;;;;3.90;2.58;;;23.00;75.90;;;;;;6123394;28;85730;-59
2022/09/15 00:36:31;;;;;;;4.18;2.42;;;22.90;75.90;;;;;;6108012;28;80128;-60
2022/09/15 00:39:32;;;;;;;2.60;2.40;;;23.00;76.20;;;;;;6114739;28;83230;-60
2022/09/15 00:42:32;;;;;;;2.65;2.03;;;23.00;76.20;;;;;;6117803;28;80490;-60
2022/09/15 00:45:33;;;;;;;4.07;2.80;;;23.00;76.20;;;;;;6105685;28;80606;-58
2022/09/15 00:48:33;;;;;;;4.47;2.60;;;23.00;76.20;;;;;;6121326;28;80340;-59
2022/09/15 00:51:34;;;;;;;2.58;2.15;;;23.00;76.20;;;;;;6123662;28;82410;-59
2022/09/15 00:54:34;;;;;;;5.00;2.80;;;23.00;76.20;;;;;;6118636;28;83208;-59
2022/09/15 00:57:35;;;;;;;3.88;2.35;;;23.00;76.30;;;;;;6127934;28;80979;-60
2022/09/15 01:00:35;;;;;;;2.95;2.28;;;23.00;76.30;;;;;;6126547;28;83040;-60
2022/09/15 01:03:36;;;;;;;2.53;2.33;;;23.00;76.40;;;;;;6125160;28;80708;-59
2022/09/15 01:06:36;;;;;;;3.45;2.25;;;22.90;76.30;;;;;;6129086;28;80545;-59
2022/09/15 01:09:37;;;;;;;4.25;2.25;;;23.00;76.30;;;;;;6128430;28;80336;-59
2022/09/15 01:12:37;;;;;;;4.57;2.28;;;23.00;76.50;;;;;;6126278;28;80735;-60
2022/09/15 01:15:38;;;;;;;2.38;2.00;;;23.00;76.40;;;;;;6111938;28;80997;-61
2022/09/15 01:18:38;;;;;;;4.07;2.60;;;23.00;76.40;;;;;;6118648;28;81642;-59
2022/09/15 01:21:38;;;;;;;1.80;1.58;;;23.00;76.40;;;;;;6106698;28;80286;-61
2022/09/15 01:24:39;;;;;;;3.58;2.47;;;23.00;76.50;;;;;;6114469;28;80945;-59
2022/09/15 01:27:39;;;;;;;2.97;1.92;;;23.00;76.40;;;;;;6112928;28;81019;-59
2022/09/15 01:30:40;;;;;;;4.20;2.28;;;23.00;76.50;;;;;;6120167;28;83320;-59
2022/09/15 01:33:40;;;;;;;3.15;2.05;;;23.00;76.50;;;;;;6128802;28;80412;-60
2022/09/15 01:36:41;;;;;;;3.97;2.25;;;23.00;76.50;;;;;;6115247;28;84336;-59
2022/09/15 01:39:42;;;;;;;3.80;2.50;;;22.90;76.40;;;;;;6121629;28;80499;-59
2022/09/15 01:42:42;;;;;;;8.77;2.40;;;23.00;76.50;;;;;;6109166;28;80522;-56
2022/09/15 01:45:43;;;;;;;2.13;1.90;;;23.00;76.30;;;;;;6141010;28;80375;-55
2022/09/15 01:48:43;;;;;;;4.20;2.50;;;23.00;76.50;;;;;;6128183;28;80532;-57
2022/09/15 01:51:44;;;;;;;3.78;2.50;;;23.00;76.40;;;;;;6123867;28;81794;-55
2022/09/15 01:54:47;;;;;;;2.67;2.05;;;23.00;76.40;;;;;;6127208;28;83449;-55
2022/09/15 01:57:48;;;;;;;4.80;2.95;;;23.00;76.40;;;;;;6126106;28;80488;-55
2022/09/15 02:00:49;;;;;;;2.38;2.13;;;23.00;76.40;;;;;;6153944;28;83207;-57
2022/09/15 02:03:49;;;;;;;3.67;2.35;;;23.00;76.40;;;;;;6140229;28;81042;-57
2022/09/15 02:06:50;;;;;;;2.72;2.05;;;23.00;76.30;;;;;;6142172;28;82171;-56
2022/09/15 02:09:51;;;;;;;2.95;2.22;;;23.00;76.20;;;;;;6132661;28;80988;-54
2022/09/15 02:12:51;;;;;;;2.45;2.10;;;23.00;76.20;;;;;;6140061;28;80656;-55
2022/09/15 02:15:52;;;;;;;3.10;2.22;;;23.00;76.20;;;;;;6145309;28;80631;-57
2022/09/15 02:18:52;;;;;;;3.25;2.38;;;23.00;76.00;;;;;;6143944;28;86806;-59
2022/09/15 02:21:53;;;;;;;3.95;2.60;;;23.00;75.90;;;;;;6141985;28;80574;-60
2022/09/15 02:24:55;;;;;;;2.95;2.30;;;23.00;76.00;;;;;;6134902;28;80412;-59
2022/09/15 02:27:56;;;;;;;2.75;2.35;;;23.00;76.00;;;;;;6137605;28;85697;-60
2022/09/15 02:30:56;;;;;;;3.10;1.95;;;23.00;75.90;;;;;;6139848;28;81121;-58
2022/09/15 02:33:57;;;;;;;3.38;2.20;;;23.00;76.00;;;;;;6151431;28;80082;-58
2022/09/15 02:36:58;;;;;;;3.05;2.22;;;23.00;76.00;;;;;;6146255;28;80506;-59
2022/09/15 02:39:58;;;;;;;3.10;2.38;;;23.00;75.90;;;;;;6123625;28;80640;-60
2022/09/15 02:43:02;;;;;;;3.00;1.90;;;23.00;76.10;;;;;;6098815;28;86940;-59
2022/09/15 02:46:03;;;;;;;3.22;2.15;;;23.00;76.00;;;;;;6107552;28;85941;-59
2022/09/15 02:49:03;;;;;;;2.40;2.17;;;23.00;76.10;;;;;;6125106;28;80551;-59
2022/09/15 02:52:03;;;;;;;4.20;2.45;;;23.00;76.10;;;;;;6105010;28;80253;-59
2022/09/15 02:55:04;;;;;;;4.28;2.20;;;22.90;76.10;;;;;;6129935;28;80698;-60
2022/09/15 02:58:04;;;;;;;3.10;2.00;;;23.00;76.20;;;;;;6119603;28;80611;-60
2022/09/15 03:01:05;;;;;;;2.45;2.15;;;23.00;76.30;;;;;;6123078;28;81207;-59
2022/09/15 03:04:05;;;;;;;3.20;2.13;;;23.00;76.30;;;;;;6127212;28;80331;-59
2022/09/15 03:07:06;;;;;;;6.85;2.45;;;23.00;76.30;;;;;;6129099;28;80613;-59
2022/09/15 03:10:06;;;;;;;2.47;2.25;;;23.00;76.10;;;;;;6126720;28;80367;-59
2022/09/15 03:13:07;;;;;;;2.53;2.08;;;23.00;76.00;;;;;;6123810;28;87339;-59
2022/09/15 03:16:08;;;;;;;2.60;2.15;;;23.00;76.00;;;;;;6117103;28;80477;-58
2022/09/15 03:19:08;;;;;;;3.72;2.38;;;23.00;76.10;;;;;;6124988;28;80606;-59
2022/09/15 03:22:09;;;;;;;3.38;2.15;;;23.00;76.00;;;;;;6125193;28;80623;-58
2022/09/15 03:25:10;;;;;;;7.35;2.78;;;23.00;76.20;;;;;;6129451;28;80277;-59
2022/09/15 03:28:10;;;;;;;3.38;2.70;;;23.00;76.00;;;;;;6119891;28;82256;-59
2022/09/15 03:31:11;;;;;;;3.03;2.00;;;23.00;76.30;;;;;;6124828;28;80510;-53
2022/09/15 03:34:11;;;;;;;7.03;2.38;;;23.00;75.90;;;;;;6118237;28;80603;-60
2022/09/15 03:37:12;;;;;;;2.78;2.17;;;23.00;75.60;;;;;;6126902;28;81865;-60
2022/09/15 03:40:13;;;;;;;3.10;2.13;;;23.00;75.70;;;;;;6129616;28;81021;-60
2022/09/15 03:43:13;;;;;;;3.08;2.33;;;23.00;76.00;;;;;;6123991;28;80434;-61
2022/09/15 03:46:14;;;;;;;5.20;1.92;;;23.00;76.00;;;;;;6121999;28;80880;-62
2022/09/15 03:49:14;;;;;;;10.90;2.58;;;23.00;76.60;;;;;;6120978;28;80343;-58
2022/09/15 03:52:15;;;;;;;2.33;1.85;;;23.00;76.50;;;;;;6121854;28;86837;-58
2022/09/15 03:55:15;;;;;;;4.80;2.92;;;23.00;76.30;;;;;;6126369;28;81090;-61
2022/09/15 03:58:16;;;;;;;11.25;2.60;;;23.00;76.60;;;;;;6121058;28;80887;-58
2022/09/15 04:01:17;;;;;;;3.42;2.38;;;23.00;76.60;;;;;;6124278;28;80427;-58
2022/09/15 04:04:18;;;;;;;6.35;2.42;;;23.00;76.60;;;;;;6118057;28;80472;-59
2022/09/15 04:07:18;;;;;;;4.20;2.50;;;23.10;76.60;;;;;;6124371;28;81041;-56
2022/09/15 04:10:19;;;;;;;8.27;2.35;;;23.10;76.70;;;;;;6124353;28;80401;-58
2022/09/15 04:13:19;;;;;;;5.00;3.03;;;23.10;76.90;;;;;;6121532;28;80248;-59
2022/09/15 04:16:21;;;;;;;9.85;2.95;;;23.00;77.20;;;;;;6116082;28;81260;-61
2022/09/15 04:19:22;;;;;;;3.83;2.50;;;23.00;77.80;;;;;;6112063;28;80972;-60
2022/09/15 04:22:22;;;;;;;14.63;2.70;;;23.10;77.70;;;;;;6125006;28;80439;-59
2022/09/15 04:25:23;;;;;;;15.18;3.10;;;23.10;77.60;;;;;;6124221;28;80515;-59
2022/09/15 04:28:24;;;;;;;6.85;2.47;;;23.10;77.90;;;;;;6116332;28;80184;-60
2022/09/15 04:31:25;;;;;;;11.60;2.70;;;23.10;77.90;;;;;;6114916;28;80760;-60
2022/09/15 04:34:25;;;;;;;13.55;3.08;;;23.10;78.30;;;;;;6119150;28;80710;-62
2022/09/15 04:37:26;;;;;;;6.40;3.00;;;23.10;77.50;;;;;;6104267;28;80679;-58
2022/09/15 04:40:26;;;;;;;3.60;2.78;;;23.10;77.20;;;;;;6103888;28;80447;-60
2022/09/15 04:43:27;;;;;;;4.28;2.80;;;23.20;76.90;;;;;;6116402;28;80469;-59
2022/09/15 04:46:27;;;;;;;7.68;3.05;;;23.20;77.20;;;;;;6124260;28;80899;-58
2022/09/15 04:49:28;;;;;;;3.30;2.38;;;23.20;77.10;;;;;;6121283;28;80845;-58
2022/09/15 04:52:28;;;;;;;5.60;2.85;;;23.20;77.10;;;;;;6118149;28;85923;-58
2022/09/15 04:55:29;;;;;;;4.90;2.67;;;23.20;77.00;;;;;;6127466;28;80629;-57
2022/09/15 04:58:29;;;;;;;4.60;2.78;;;23.20;77.00;;;;;;6128641;28;80607;-58
2022/09/15 05:01:30;;;;;;;5.25;3.00;;;23.20;77.00;;;;;;6124166;28;80660;-58
2022/09/15 05:04:30;;;;;;;4.35;3.10;;;23.20;76.70;;;;;;6123445;28;81650;-60
2022/09/15 05:07:31;;;;;;;5.75;3.35;;;23.20;76.90;;;;;;6117579;28;83991;-67
2022/09/15 05:10:32;;;;;;;3.55;2.28;;;23.20;76.90;;;;;;6097908;28;80512;-68
2022/09/15 05:13:32;;;;;;;5.28;2.90;;;23.20;76.60;;;;;;6112605;28;81494;-63
2022/09/15 05:16:33;;;;;;;13.32;3.13;;;23.20;76.70;;;;;;6114452;28;80537;-68
2022/09/15 05:19:33;;;;;;;5.60;2.72;;;23.20;76.60;;;;;;6104379;28;81219;-59
2022/09/15 05:22:34;;;;;;;13.82;2.55;;;23.30;76.60;;;;;;6108038;28;81811;-59
2022/09/15 05:25:34;;;;;;;6.47;2.88;;;23.30;76.40;;;;;;6120018;28;84647;-60
2022/09/15 05:28:35;;;;;;;3.58;2.30;;;23.20;76.30;;;;;;6114843;28;80838;-59
2022/09/15 05:31:35;;;;;;;5.60;3.05;;;23.20;76.50;;;;;;6119617;28;83293;-59
2022/09/15 05:34:36;;;;;;;5.05;2.72;;;23.20;76.30;;;;;;6109344;28;80535;-59
2022/09/15 05:37:37;;;;;;;3.83;2.35;;;23.20;76.40;;;;;;6108678;28;80312;-59
2022/09/15 05:40:37;;;;;;;11.45;2.92;;;23.10;76.30;;;;;;6110150;28;81041;-59
2022/09/15 05:43:38;;;;;;;7.25;2.85;;;23.10;76.10;;;;;;6111528;28;80541;-59
2022/09/15 05:46:38;;;;;;;7.35;2.88;;;23.10;76.20;;;;;;6116869;28;85165;-59
2022/09/15 05:49:39;;;;;;;4.32;2.47;;;23.10;76.20;;;;;;6110580;28;80513;-60
2022/09/15 05:52:39;;;;;;;4.63;2.70;;;23.10;76.00;;;;;;6110546;28;91854;-60
2022/09/15 05:55:40;;;;;;;6.78;3.10;;;23.10;76.10;;;;;;6128404;28;80043;-60
2022/09/15 05:58:40;;;;;;;3.47;2.72;;;23.10;75.80;;;;;;6129480;28;82005;-60
2022/09/15 06:01:41;;;;;;;3.78;2.53;;;23.10;76.00;;;;;;6132202;28;80463;-60
2022/09/15 06:04:41;;;;;;;3.65;2.17;;;23.10;75.80;;;;;;6129387;28;80358;-60
2022/09/15 06:07:42;;;;;;;2.65;2.20;;;23.10;76.00;;;;;;6137241;28;80382;-62
2022/09/15 06:10:42;;;;;;;4.28;2.47;;;23.10;76.00;;;;;;6134045;28;80691;-61
2022/09/15 06:13:42;;;;;;;3.60;2.35;;;23.10;76.20;;;;;;6138892;28;86217;-58
2022/09/15 06:16:43;;;;;;;9.10;2.08;;;23.10;76.50;;;;;;6137699;28;81122;-57
2022/09/15 06:19:44;;;;;;;4.28;2.10;;;23.10;76.90;;;;;;6132400;28;80605;-58
2022/09/15 06:22:44;;;;;;;5.88;2.60;;;23.00;77.70;;;;;;6126658;28;84096;-58
2022/09/15 06:25:45;;;;;;;3.50;2.20;;;22.90;78.80;;;;;;6128787;28;80995;-59
2022/09/15 06:28:45;;;;;;;5.53;2.50;;;22.90;78.90;;;;;;6127875;28;81025;-59
2022/09/15 06:31:46;;;;;;;7.75;3.80;;;22.90;78.90;;;;;;6115588;28;81317;-59
2022/09/15 06:34:46;;;;;;;11.48;5.05;;;23.00;78.70;;;;;;6121651;28;80327;-55
2022/09/15 06:37:47;;;;;;;21.27;5.28;;;23.00;78.30;;;;;;6122571;28;83591;-57
2022/09/15 06:40:47;;;;;;;14.25;7.25;;;23.00;78.90;;;;;;6117963;28;83763;-57
2022/09/15 06:43:48;;;;;;;18.02;8.25;;;23.10;78.60;;;;;;6129569;28;81531;-56
2022/09/15 06:46:48;;;;;;;18.65;7.72;;;23.10;78.00;;;;;;6130380;28;81357;-57
2022/09/15 06:49:49;;;;;;;19.90;6.63;;;23.20;78.00;;;;;;6117974;28;80578;-55
2022/09/15 06:52:49;;;;;;;16.80;6.13;;;23.20;78.10;;;;;;6116317;28;80720;-56
2022/09/15 06:55:50;;;;;;;26.38;8.27;;;23.20;78.20;;;;;;6130452;28;80432;-56
2022/09/15 06:58:50;;;;;;;23.45;7.13;;;23.20;78.00;;;;;;6129639;28;81241;-56
2022/09/15 07:01:51;;;;;;;18.75;7.95;;;23.20;78.00;;;;;;6128673;28;81577;-55
2022/09/15 07:04:52;;;;;;;21.52;7.05;;;23.20;77.90;;;;;;6148090;28;80521;-55
2022/09/15 07:07:52;;;;;;;14.48;5.30;;;23.20;78.10;;;;;;6135829;28;80440;-57
2022/09/15 07:10:53;;;;;;;13.38;6.43;;;23.20;78.00;;;;;;6136688;28;80766;-56
2022/09/15 07:13:54;;;;;;;18.27;5.95;;;23.20;78.00;;;;;;6138302;28;82250;-56
2022/09/15 07:16:54;;;;;;;17.25;5.90;;;23.20;78.00;;;;;;6152335;28;80328;-56
2022/09/15 07:19:55;;;;;;;14.15;5.65;;;23.20;78.10;;;;;;6153606;28;80272;-57
2022/09/15 07:22:56;;;;;;;9.88;4.75;;;23.20;78.20;;;;;;6150459;28;80281;-58
2022/09/15 07:25:56;;;;;;;10.30;4.68;;;23.20;78.40;;;;;;6154547;28;80410;-57
2022/09/15 07:28:57;;;;;;;5.38;3.92;;;23.20;78.40;;;;;;6149860;28;80038;-58
2022/09/15 07:31:57;;;;;;;8.63;4.25;;;23.20;78.60;;;;;;6139545;28;81345;-57
2022/09/15 07:34:58;;;;;;;8.90;3.47;;;23.20;78.70;;;;;;6156519;28;80382;-57
2022/09/15 07:37:59;;;;;;;7.50;3.47;;;22.90;79.70;;;;;;6151950;28;87585;-55
2022/09/15 07:40:59;;;;;;;8.80;3.53;;;22.90;79.80;;;;;;6143941;28;80469;-57
2022/09/15 07:44:00;;;;;;;4.45;3.03;;;23.00;79.90;;;;;;6155356;28;81613;-56
2022/09/15 07:47:00;;;;;;;9.10;2.78;;;22.90;79.90;;;;;;6148054;28;80963;-54
2022/09/15 07:50:01;;;;;;;5.65;2.97;;;23.00;79.70;;;;;;6138093;28;84160;-58
2022/09/15 07:53:02;;;;;;;4.57;2.75;;;23.00;79.50;;;;;;6138023;28;80193;-58
2022/09/15 07:56:03;;;;;;;6.72;2.53;;;23.00;79.40;;;;;;6157079;28;80732;-59
2022/09/15 07:59:03;;;;;;;4.45;2.28;;;23.00;79.50;;;;;;6152133;28;80562;-59
2022/09/15 08:02:04;;;;;;;2.70;2.30;;;23.00;79.10;;;;;;6152724;28;83862;-58
2022/09/15 08:05:04;;;;;;;2.75;2.03;;;23.00;78.70;;;;;;6152514;28;82859;-58
2022/09/15 08:08:05;;;;;;;3.28;1.85;;;22.90;78.30;;;;;;6149108;28;80891;-58
2022/09/15 08:11:05;;;;;;;7.53;1.80;;;22.90;77.60;;;;;;6150390;28;85498;-59
2022/09/15 08:14:06;;;;;;;5.45;1.90;;;22.90;77.50;;;;;;6144607;28;80990;-58
2022/09/15 08:17:06;;;;;;;3.85;2.08;;;23.00;77.20;;;;;;6155047;28;82266;-59
2022/09/15 08:20:07;;;;;;;2.10;1.60;;;23.00;76.90;;;;;;6158880;28;81761;-59
2022/09/15 08:23:08;;;;;;;1.42;1.33;;;23.00;76.70;;;;;;6149806;28;81706;-57
2022/09/15 08:26:08;;;;;;;2.08;1.75;;;23.00;76.40;;;;;;6147544;28;80445;-58
2022/09/15 08:29:09;;;;;;;2.10;1.48;;;23.00;76.40;;;;;;6149091;28;86135;-58
2022/09/15 08:32:10;;;;;;;2.60;1.48;;;23.00;76.20;;;;;;6151328;28;80970;-58
2022/09/15 08:35:11;;;;;;;6.93;3.50;;;23.00;76.10;;;;;;6135002;28;86636;-59
2022/09/15 08:38:12;;;;;;;39.35;14.85;;;23.10;76.00;;;;;;6129949;28;82785;-59
2022/09/15 08:41:12;;;;;;;247.30;92.47;;;23.10;75.90;;;;;;6130321;28;83320;-59
2022/09/15 08:44:14;;;;;;;251.07;99.20;;;23.10;75.80;;;;;;6136762;28;83287;-57
2022/09/15 08:47:15;;;;;;;244.85;100.63;;;23.10;75.60;;;;;;6136205;28;88062;-57
2022/09/15 08:50:15;;;;;;;293.88;111.85;;;23.10;75.60;;;;;;6129203;28;85590;-57
2022/09/15 08:53:16;;;;;;;314.67;126.38;;;23.10;75.40;;;;;;6143229;28;85638;-58
2022/09/15 08:56:16;;;;;;;338.27;137.68;;;23.10;75.30;;;;;;6142188;28;85749;-58
2022/09/15 08:59:17;;;;;;;265.90;106.05;;;23.20;75.30;;;;;;6148880;28;86030;-58
2022/09/15 09:02:17;;;;;;;274.85;111.55;;;23.20;75.00;;;;;;6151547;28;85331;-55
2022/09/15 09:05:18;;;;;;;238.15;102.90;;;23.20;75.10;;;;;;6125911;28;86594;-59
2022/09/15 09:08:18;;;;;;;223.60;89.38;;;23.20;75.10;;;;;;6131471;28;85648;-57
2022/09/15 09:11:19;;;;;;;186.98;78.10;;;23.20;75.00;;;;;;6132560;28;86071;-56
2022/09/15 09:14:19;;;;;;;182.80;75.05;;;23.20;74.90;;;;;;6132722;28;84740;-58
2022/09/15 09:17:20;;;;;;;157.27;65.03;;;23.20;74.90;;;;;;6139938;28;83154;-59
2022/09/15 09:20:21;;;;;;;125.82;50.67;;;23.20;75.10;;;;;;6140522;28;84134;-57
2022/09/15 09:23:22;;;;;;;114.43;47.97;;;23.20;74.90;;;;;;6138390;28;84236;-61
2022/09/15 09:26:23;;;;;;;101.78;41.13;;;23.20;75.00;;;;;;6133153;28;83279;-61
2022/09/15 09:29:25;;;;;;;89.20;37.45;;;23.20;75.00;;;;;;6118308;28;86809;-63
2022/09/15 09:32:26;;;;;;;89.68;36.83;;;23.20;75.00;;;;;;6110132;28;83530;-62
2022/09/15 09:35:26;;;;;;;73.68;30.70;;;23.30;75.00;;;;;;6122978;28;83492;-58
2022/09/15 09:38:27;;;;;;;67.15;26.27;;;23.30;74.90;;;;;;6115724;28;83179;-60
2022/09/15 09:41:34;;;;;;;35.20;15.02;;;23.30;75.00;;;;;;6115932;28;85170;-60
2022/09/15 09:44:36;;;;;;;33.75;14.30;;;23.20;74.10;;;;;;6110848;28;84358;-59
2022/09/15 09:47:36;;;;;;;28.85;11.05;;;23.20;73.80;;;;;;6116257;28;87225;-59
2022/09/15 09:50:41;;;;;;;18.08;9.23;;;23.20;73.60;;;;;;6109036;28;82852;-60
2022/09/15 09:53:43;;;;;;;16.43;8.07;;;23.20;73.60;;;;;;6119783;28;82795;-60
2022/09/15 09:56:43;;;;;;;8.98;5.40;;;23.20;73.40;;;;;;6130957;28;80468;-59
2022/09/15 09:59:44;;;;;;;7.05;4.03;;;23.20;73.30;;;;;;6138069;28;83909;-59
2022/09/15 10:02:44;;;;;;;6.63;4.07;;;23.10;72.90;;;;;;6154847;28;80307;-58
2022/09/15 10:05:45;;;;;;;5.78;3.40;;;23.10;73.10;;;;;;6131689;28;81414;-58
2022/09/15 10:08:45;;;;;;;6.03;3.05;;;23.10;73.30;;;;;;6147668;28;81296;-59
2022/09/15 10:11:46;;;;;;;6.82;2.90;;;23.10;73.30;;;;;;6140533;28;80642;-59
2022/09/15 10:14:49;;;;;;;4.32;3.00;;;23.10;73.30;;;;;;6152065;28;80817;-58
2022/09/15 10:17:49;;;;;;;3.58;2.38;;;23.10;73.40;;;;;;6140475;28;82881;-59
2022/09/15 10:20:50;;;;;;;4.13;2.40;;;23.10;73.30;;;;;;6164639;28;80409;-58
2022/09/15 10:23:50;;;;;;;4.65;2.25;;;23.00;73.40;;;;;;6161515;28;84275;-59
2022/09/15 10:26:51;;;;;;;2.90;2.20;;;23.10;73.40;;;;;;6152779;28;80214;-59
2022/09/15 10:29:51;;;;;;;3.15;2.45;;;23.10;73.10;;;;;;6157405;28;80470;-59
2022/09/15 10:32:52;;;;;;;3.22;2.10;;;23.10;72.90;;;;;;6154687;28;80353;-59
2022/09/15 10:35:52;;;;;;;3.15;2.08;;;23.10;72.40;;;;;;6154919;28;80349;-59
2022/09/15 10:38:53;;;;;;;1.98;1.70;;;23.10;72.40;;;;;;6149474;28;80304;-58
2022/09/15 10:41:53;;;;;;;2.75;1.98;;;23.10;72.70;;;;;;6147254;28;80763;-57
2022/09/15 10:44:53;;;;;;;2.95;1.70;;;23.10;72.60;;;;;;6139931;28;80384;-57
2022/09/15 10:47:54;;;;;;;2.50;1.77;;;23.10;72.90;;;;;;6132666;28;87053;-58
2022/09/15 10:50:54;;;;;;;1.88;1.70;;;23.10;72.90;;;;;;6106380;28;80200;-58
2022/09/15 10:53:55;;;;;;;3.20;1.80;;;23.20;72.70;;;;;;6119528;28;81043;-61
2022/09/15 10:56:55;;;;;;;2.38;1.67;;;23.20;72.70;;;;;;6129628;28;82348;-58
2022/09/15 10:59:56;;;;;;;3.40;2.03;;;23.20;72.40;;;;;;6129311;28;80369;-58
2022/09/15 11:02:56;;;;;;;7.10;3.47;;;23.20;72.30;;;;;;6128674;28;80558;-58
2022/09/15 11:05:57;;;;;;;4.82;2.85;;;23.20;72.50;;;;;;6132294;28;80438;-59
2022/09/15 11:08:57;;;;;;;2.97;2.08;;;23.20;72.50;;;;;;6123094;28;80743;-59
2022/09/15 11:11:58;;;;;;;3.03;2.13;;;23.20;73.10;;;;;;6110090;28;83908;-58
2022/09/15 11:14:59;;;;;;;2.47;1.83;;;23.20;73.20;;;;;;6116899;28;80331;-56
2022/09/15 11:17:59;;;;;;;5.68;2.03;;;23.20;73.20;;;;;;6119586;28;84203;-58
2022/09/15 11:21:00;;;;;;;3.05;1.58;;;23.20;73.50;;;;;;6132690;28;80303;-59
2022/09/15 11:24:00;;;;;;;2.42;1.80;;;23.10;73.60;;;;;;6124332;28;81884;-58
2022/09/15 11:27:00;;;;;;;6.72;2.45;;;23.20;73.60;;;;;;6103111;28;85067;-58
2022/09/15 11:30:01;;;;;;;3.65;2.15;;;23.10;73.30;;;;;;6110247;28;82457;-57
2022/09/15 11:33:02;;;;;;;6.32;2.83;;;23.10;73.30;;;;;;6117104;28;80973;-58
2022/09/15 11:36:02;;;;;;;19.42;4.43;;;23.20;73.80;;;;;;6106017;28;80894;-58
2022/09/15 11:39:03;;;;;;;24.73;7.15;;;23.10;74.00;;;;;;6113113;28;81196;-58
2022/09/15 11:42:03;;;;;;;33.53;9.15;;;23.20;74.30;;;;;;6114553;28;80451;-58
2022/09/15 11:45:04;;;;;;;32.17;9.02;;;23.20;74.50;;;;;;6107649;28;80764;-57
2022/09/15 11:48:04;;;;;;;27.55;10.55;;;23.20;74.60;;;;;;6118100;28;81616;-59
2022/09/15 11:51:05;;;;;;;33.72;10.30;;;23.10;75.40;;;;;;6107496;28;83120;-59
2022/09/15 11:54:05;;;;;;;37.70;12.60;;;23.10;75.10;;;;;;6110005;28;87494;-60
2022/09/15 11:57:06;;;;;;;49.53;16.05;;;23.20;75.60;;;;;;6105953;28;83486;-59
2022/09/15 12:00:06;;;;;;;39.70;13.25;;;23.30;76.00;;;;;;6105145;28;83706;-59
2022/09/15 12:03:07;;;;;;;13.27;5.65;;;23.20;75.40;;;;;;6102708;28;83413;-59
2022/09/15 12:06:07;;;;;;;6.45;3.50;;;22.70;74.60;;;;;;6114382;28;82886;-59
2022/09/15 12:09:08;;;;;;;8.38;4.15;;;22.50;75.10;;;;;;6110840;28;80597;-59
2022/09/15 12:12:08;;;;;;;11.80;6.63;;;22.70;75.60;;;;;;6121937;28;80560;-59
2022/09/15 12:15:09;;;;;;;19.67;8.65;;;22.90;75.40;;;;;;6107988;28;82087;-59
2022/09/15 12:18:09;;;;;;;33.85;15.77;;;23.00;76.20;;;;;;6113363;28;80381;-59
2022/09/15 12:21:10;;;;;;;51.88;16.35;;;23.10;75.70;;;;;;6103881;28;84761;-61
2022/09/15 12:24:10;;;;;;;20.85;12.38;;;23.10;75.20;;;;;;6121527;28;83657;-60
2022/09/15 12:27:11;;;;;;;15.02;6.47;;;22.90;74.60;;;;;;6123805;28;89259;-60
2022/09/15 12:30:11;;;;;;;13.88;7.47;;;22.60;74.60;;;;;;6114639;28;83469;-60
2022/09/15 12:33:12;;;;;;;27.23;12.60;;;22.80;75.10;;;;;;6121012;28;80098;-60
2022/09/15 12:36:13;;;;;;;29.63;14.23;;;22.90;75.30;;;;;;6102619;28;82761;-60
2022/09/15 12:39:13;;;;;;;32.03;14.25;;;22.80;76.60;;;;;;6111668;28;83461;-59
2022/09/15 12:42:14;;;;;;;24.83;11.35;;;22.90;76.20;;;;;;6105416;28;83563;-61
2022/09/15 12:45:14;;;;;;;29.48;14.43;;;22.80;76.40;;;;;;6106321;28;83082;-61
2022/09/15 12:48:16;;;;;;;28.95;15.52;;;22.80;76.20;;;;;;6105305;28;87526;-60
2022/09/15 12:51:16;;;;;;;32.85;18.77;;;22.60;76.80;;;;;;6101482;28;87286;-61
2022/09/15 12:54:17;;;;;;;29.42;14.15;;;22.70;76.50;;;;;;6116686;28;83549;-61
2022/09/15 12:57:17;;;;;;;19.00;9.10;;;22.70;76.20;;;;;;6124162;28;84351;-58
2022/09/15 13:00:18;;;;;;;16.92;9.68;;;22.50;76.30;;;;;;6116214;28;83004;-58
2022/09/15 13:03:18;;;;;;;20.20;8.88;;;22.40;77.20;;;;;;6125151;28;80420;-58
2022/09/15 13:06:19;;;;;;;15.85;10.00;;;22.40;77.40;;;;;;6106171;28;84374;-59
2022/09/15 13:09:20;;;;;;;8.15;6.07;;;22.50;77.20;;;;;;6106567;28;82847;-59
2022/09/15 13:12:20;;;;;;;6.80;3.22;;;22.40;77.10;;;;;;6110357;28;82952;-59
2022/09/15 13:15:21;;;;;;;4.45;2.28;;;22.10;77.60;;;;;;6114346;28;81972;-59
2022/09/15 13:18:21;;;;;;;2.95;1.95;;;21.90;78.60;;;;;;6127364;28;80502;-60
2022/09/15 13:21:22;;;;;;;4.00;2.70;;;21.80;79.20;;;;;;6121825;28;80413;-63
2022/09/15 13:24:23;;;;;;;3.72;2.83;;;22.10;78.70;;;;;;6119439;28;85154;-62
2022/09/15 13:27:23;;;;;;;8.68;3.58;;;22.40;79.10;;;;;;6101256;28;80659;-60
2022/09/15 13:30:24;;;;;;;15.40;3.10;;;22.60;77.40;;;;;;6107874;28;80559;-61
2022/09/15 13:33:24;;;;;;;3.40;2.67;;;22.70;77.00;;;;;;6116876;28;80998;-64
2022/09/15 13:36:25;;;;;;;9.30;3.47;;;22.80;77.00;;;;;;6110201;28;83849;-61
2022/09/15 13:39:25;;;;;;;7.78;3.83;;;22.80;76.80;;;;;;6102860;28;81332;-59
2022/09/15 13:42:26;;;;;;;6.03;3.10;;;22.90;76.50;;;;;;6100589;28;80176;-67
2022/09/15 13:45:27;;;;;;;6.32;3.00;;;23.00;76.30;;;;;;6113877;28;80565;-66
2022/09/15 13:48:28;;;;;;;4.90;2.92;;;23.10;76.10;;;;;;6109010;28;80735;-63
2022/09/15 13:51:28;;;;;;;3.63;2.55;;;23.10;76.20;;;;;;6116930;28;86485;-63
2022/09/15 13:54:29;;;;;;;4.57;3.17;;;23.10;75.80;;;;;;6105644;28;81759;-62
2022/09/15 13:57:29;;;;;;;7.35;3.42;;;23.20;75.70;;;;;;6125273;28;84516;-59
2022/09/15 14:00:30;;;;;;;7.75;3.30;;;23.20;75.80;;;;;;6116204;28;84834;-60
2022/09/15 14:03:35;;;;;;;25.08;12.40;;;23.20;75.50;;;;;;6117387;28;80974;-60
2022/09/15 14:06:36;;;;;;;86.67;37.20;;;23.30;75.60;;;;;;6112937;28;83081;-61
2022/09/15 14:09:37;;;;;;;188.73;85.90;;;23.30;75.50;;;;;;6106482;28;83918;-60
2022/09/15 14:12:37;;;;;;;423.13;188.18;;;23.30;75.30;;;;;;6113208;28;83036;-61
2022/09/15 14:15:38;;;;;;;447.17;198.10;;;23.40;75.30;;;;;;6120706;28;85680;-58
2022/09/15 14:18:38;;;;;;;378.40;152.57;;;23.30;75.30;;;;;;6120360;28;85579;-59
2022/09/15 14:21:39;;;;;;;329.63;137.63;;;23.40;75.10;;;;;;6119752;28;85944;-59
2022/09/15 14:24:39;;;;;;;296.77;124.45;;;23.40;75.20;;;;;;6118647;28;88326;-58
2022/09/15 14:27:40;;;;;;;255.35;116.68;;;23.40;75.10;;;;;;6119543;28;85715;-60
2022/09/15 14:30:40;;;;;;;256.73;106.55;;;23.40;75.20;;;;;;6112731;28;91489;-59
2022/09/15 14:33:41;;;;;;;216.90;94.72;;;23.40;75.10;;;;;;6117519;28;85825;-59
2022/09/15 14:36:41;;;;;;;187.57;81.22;;;23.40;75.10;;;;;;6118299;28;84160;-58
2022/09/15 14:39:42;;;;;;;188.25;79.35;;;23.40;75.30;;;;;;6110206;28;82848;-59
2022/09/15 14:42:43;;;;;;;157.85;72.25;;;23.40;75.30;;;;;;6113381;28;83900;-58
2022/09/15 14:45:43;;;;;;;137.32;63.55;;;23.50;75.40;;;;;;6125490;28;83784;-58
2022/09/15 14:48:44;;;;;;;141.73;63.03;;;23.40;75.50;;;;;;6122282;28;87201;-58
2022/09/15 14:51:44;;;;;;;152.50;62.40;;;23.50;75.60;;;;;;6126770;28;83056;-58
2022/09/15 14:54:45;;;;;;;136.88;59.72;;;23.40;75.30;;;;;;6102299;28;84887;-59
2022/09/15 14:57:45;;;;;;;127.45;58.97;;;23.40;75.30;;;;;;6100836;28;83827;-59
2022/09/15 15:00:46;;;;;;;118.20;51.38;;;23.50;75.50;;;;;;6099454;28;84002;-59
2022/09/15 15:03:46;;;;;;;104.32;44.80;;;23.50;75.80;;;;;;6112769;28;89433;-58
2022/09/15 15:06:46;;;;;;;100.47;45.25;;;23.50;76.00;;;;;;6112088;28;84088;-58
2022/09/15 15:09:47;;;;;;;98.65;43.78;;;23.50;76.00;;;;;;6130455;28;89234;-58
2022/09/15 15:12:48;;;;;;;89.38;39.72;;;23.40;76.00;;;;;;6125343;28;83369;-59
2022/09/15 15:15:48;;;;;;;84.35;37.33;;;23.40;76.10;;;;;;6100601;28;86320;-61
2022/09/15 15:18:50;;;;;;;80.75;34.25;;;23.50;76.40;;;;;;6096365;28;86284;-58
2022/09/15 15:21:50;;;;;;;77.07;32.97;;;23.50;76.40;;;;;;6105587;28;87915;-59
2022/09/15 15:24:51;;;;;;;86.47;29.58;;;23.50;76.50;;;;;;6101276;28;84511;-59
2022/09/15 15:27:51;;;;;;;70.28;29.02;;;23.50;76.60;;;;;;6099338;28;83046;-59